sensor_id;sensor_type;location;lat;lon;timestamp;P1;durP1;ratioP1;P2;durP2;ratioP2
7332;SDS011;3707;43.618;25.342;2023-05-07T00:02:23;5.85;;;1.80;;
7332;SDS011;3707;43.618;25.342;2023-05-07T00:04:50;5.00;;;1.75;;
7332;SDS011;3707;43.618;25.342;2023-05-07T00:07:17;4.80;;;1.73;;
7332;SDS011;3707;43.618;25.342;2023-05-07T00:09:45;5.68;;;1.80;;
7332;SDS011;3707;43.618;25.342;2023-05-07T00:12:12;7.55;;;2.10;;
7332;SDS011;3707;43.618;25.342;2023-05-07T00:14:39;5.25;;;1.77;;
7332;SDS011;3707;43.618;25.342;2023-05-07T00:17:05;4.28;;;1.60;;
7332;SDS011;3707;43.618;25.342;2023-05-07T00:19:32;7.05;;;2.15;;
7332;SDS011;3707;43.618;25.342;2023-05-07T00:21:59;7.32;;;2.13;;
7332;SDS011;3707;43.618;25.342;2023-05-07T00:24:26;6.07;;;1.92;;
7332;SDS011;3707;43.618;25.342;2023-05-07T00:26:54;7.13;;;2.10;;
7332;SDS011;3707;43.618;25.342;2023-05-07T00:29:23;7.72;;;2.25;;
7332;SDS011;3707;43.618;25.342;2023-05-07T00:31:50;4.80;;;1.67;;
7332;SDS011;3707;43.618;25.342;2023-05-07T00:34:19;5.63;;;1.85;;
7332;SDS011;3707;43.618;25.342;2023-05-07T00:36:46;5.22;;;1.83;;
7332;SDS011;3707;43.618;25.342;2023-05-07T00:39:12;6.90;;;2.17;;
7332;SDS011;3707;43.618;25.342;2023-05-07T00:41:39;5.78;;;1.92;;
7332;SDS011;3707;43.618;25.342;2023-05-07T00:44:07;6.40;;;1.95;;
7332;SDS011;3707;43.618;25.342;2023-05-07T00:46:34;6.30;;;2.05;;
7332;SDS011;3707;43.618;25.342;2023-05-07T00:49:01;5.53;;;1.90;;
7332;SDS011;3707;43.618;25.342;2023-05-07T00:51:28;5.25;;;1.63;;
7332;SDS011;3707;43.618;25.342;2023-05-07T00:53:56;4.80;;;1.58;;
7332;SDS011;3707;43.618;25.342;2023-05-07T00:56:22;8.50;;;2.22;;
7332;SDS011;3707;43.618;25.342;2023-05-07T00:58:50;2.33;;;1.13;;
7332;SDS011;3707;43.618;25.342;2023-05-07T01:01:18;7.43;;;2.13;;
7332;SDS011;3707;43.618;25.342;2023-05-07T01:03:45;6.50;;;1.92;;
7332;SDS011;3707;43.618;25.342;2023-05-07T01:06:12;6.97;;;2.05;;
7332;SDS011;3707;43.618;25.342;2023-05-07T01:08:41;7.80;;;2.17;;
7332;SDS011;3707;43.618;25.342;2023-05-07T01:11:09;6.45;;;1.92;;
7332;SDS011;3707;43.618;25.342;2023-05-07T01:13:36;6.38;;;1.90;;
7332;SDS011;3707;43.618;25.342;2023-05-07T01:16:05;8.02;;;2.17;;
7332;SDS011;3707;43.618;25.342;2023-05-07T01:18:33;5.35;;;1.75;;
7332;SDS011;3707;43.618;25.342;2023-05-07T01:21:00;5.65;;;1.83;;
7332;SDS011;3707;43.618;25.342;2023-05-07T01:23:31;7.32;;;2.17;;
7332;SDS011;3707;43.618;25.342;2023-05-07T01:26:00;6.78;;;1.85;;
7332;SDS011;3707;43.618;25.342;2023-05-07T01:28:27;7.38;;;2.10;;
7332;SDS011;3707;43.618;25.342;2023-05-07T01:30:54;6.03;;;1.80;;
7332;SDS011;3707;43.618;25.342;2023-05-07T01:33:24;6.82;;;1.85;;
7332;SDS011;3707;43.618;25.342;2023-05-07T01:35:56;5.85;;;1.88;;
7332;SDS011;3707;43.618;25.342;2023-05-07T01:38:25;5.30;;;1.80;;
7332;SDS011;3707;43.618;25.342;2023-05-07T01:40:54;3.97;;;1.52;;
7332;SDS011;3707;43.618;25.342;2023-05-07T01:43:22;7.47;;;2.13;;
7332;SDS011;3707;43.618;25.342;2023-05-07T01:45:49;5.43;;;1.75;;
7332;SDS011;3707;43.618;25.342;2023-05-07T01:48:16;6.05;;;1.85;;
7332;SDS011;3707;43.618;25.342;2023-05-07T01:50:44;6.78;;;2.03;;
7332;SDS011;3707;43.618;25.342;2023-05-07T01:53:11;6.70;;;1.92;;
7332;SDS011;3707;43.618;25.342;2023-05-07T01:55:38;7.35;;;2.85;;
7332;SDS011;3707;43.618;25.342;2023-05-07T01:58:06;6.07;;;1.80;;
7332;SDS011;3707;43.618;25.342;2023-05-07T02:00:33;4.50;;;1.60;;
7332;SDS011;3707;43.618;25.342;2023-05-07T02:03:00;5.30;;;1.60;;
7332;SDS011;3707;43.618;25.342;2023-05-07T02:05:26;6.80;;;2.03;;
7332;SDS011;3707;43.618;25.342;2023-05-07T02:07:53;6.20;;;1.90;;
7332;SDS011;3707;43.618;25.342;2023-05-07T02:10:20;8.48;;;2.20;;
7332;SDS011;3707;43.618;25.342;2023-05-07T02:12:47;7.22;;;1.90;;
7332;SDS011;3707;43.618;25.342;2023-05-07T02:15:15;8.43;;;2.13;;
7332;SDS011;3707;43.618;25.342;2023-05-07T02:20:29;6.63;;;1.95;;
7332;SDS011;3707;43.618;25.342;2023-05-07T02:22:56;5.55;;;1.75;;
7332;SDS011;3707;43.618;25.342;2023-05-07T02:25:22;6.60;;;1.92;;
7332;SDS011;3707;43.618;25.342;2023-05-07T02:27:49;5.00;;;1.52;;
7332;SDS011;3707;43.618;25.342;2023-05-07T02:30:17;6.50;;;1.80;;
7332;SDS011;3707;43.618;25.342;2023-05-07T02:32:46;9.98;;;2.33;;
7332;SDS011;3707;43.618;25.342;2023-05-07T02:35:13;8.75;;;2.25;;
7332;SDS011;3707;43.618;25.342;2023-05-07T02:37:39;6.88;;;2.10;;
7332;SDS011;3707;43.618;25.342;2023-05-07T02:40:06;8.68;;;2.50;;
7332;SDS011;3707;43.618;25.342;2023-05-07T02:42:34;8.73;;;2.40;;
7332;SDS011;3707;43.618;25.342;2023-05-07T02:45:01;7.30;;;2.50;;
7332;SDS011;3707;43.618;25.342;2023-05-07T02:47:29;6.72;;;2.05;;
7332;SDS011;3707;43.618;25.342;2023-05-07T02:49:56;6.13;;;2.03;;
7332;SDS011;3707;43.618;25.342;2023-05-07T02:52:22;6.85;;;2.17;;
7332;SDS011;3707;43.618;25.342;2023-05-07T02:54:49;7.38;;;2.10;;
7332;SDS011;3707;43.618;25.342;2023-05-07T02:57:16;7.90;;;2.22;;
7332;SDS011;3707;43.618;25.342;2023-05-07T02:59:43;8.50;;;2.33;;
7332;SDS011;3707;43.618;25.342;2023-05-07T03:02:10;8.32;;;2.30;;
7332;SDS011;3707;43.618;25.342;2023-05-07T03:04:39;6.90;;;2.10;;
7332;SDS011;3707;43.618;25.342;2023-05-07T03:07:06;5.75;;;1.83;;
7332;SDS011;3707;43.618;25.342;2023-05-07T03:09:33;5.88;;;1.90;;
7332;SDS011;3707;43.618;25.342;2023-05-07T03:11:59;5.10;;;1.80;;
7332;SDS011;3707;43.618;25.342;2023-05-07T03:14:26;7.43;;;2.17;;
7332;SDS011;3707;43.618;25.342;2023-05-07T03:16:53;7.22;;;2.10;;
7332;SDS011;3707;43.618;25.342;2023-05-07T03:19:20;7.97;;;2.30;;
7332;SDS011;3707;43.618;25.342;2023-05-07T03:21:48;7.40;;;2.28;;
7332;SDS011;3707;43.618;25.342;2023-05-07T03:24:15;9.05;;;2.35;;
7332;SDS011;3707;43.618;25.342;2023-05-07T03:26:42;6.43;;;1.88;;
7332;SDS011;3707;43.618;25.342;2023-05-07T03:29:08;6.82;;;2.17;;
7332;SDS011;3707;43.618;25.342;2023-05-07T03:31:35;5.38;;;1.88;;
7332;SDS011;3707;43.618;25.342;2023-05-07T03:34:02;6.35;;;2.08;;
7332;SDS011;3707;43.618;25.342;2023-05-07T03:36:29;6.47;;;2.03;;
7332;SDS011;3707;43.618;25.342;2023-05-07T03:38:57;6.30;;;1.95;;
7332;SDS011;3707;43.618;25.342;2023-05-07T03:41:23;7.75;;;2.25;;
7332;SDS011;3707;43.618;25.342;2023-05-07T03:43:50;6.68;;;2.13;;
7332;SDS011;3707;43.618;25.342;2023-05-07T03:46:17;7.65;;;2.35;;
7332;SDS011;3707;43.618;25.342;2023-05-07T03:48:44;5.70;;;1.88;;
7332;SDS011;3707;43.618;25.342;2023-05-07T03:51:11;5.18;;;1.95;;
7332;SDS011;3707;43.618;25.342;2023-05-07T03:53:37;5.13;;;1.90;;
7332;SDS011;3707;43.618;25.342;2023-05-07T03:56:06;5.72;;;2.03;;
7332;SDS011;3707;43.618;25.342;2023-05-07T03:58:32;5.45;;;2.03;;
7332;SDS011;3707;43.618;25.342;2023-05-07T04:00:59;6.47;;;2.05;;
7332;SDS011;3707;43.618;25.342;2023-05-07T04:03:27;4.55;;;1.83;;
7332;SDS011;3707;43.618;25.342;2023-05-07T04:05:53;4.15;;;2.40;;
7332;SDS011;3707;43.618;25.342;2023-05-07T04:08:20;5.85;;;2.00;;
7332;SDS011;3707;43.618;25.342;2023-05-07T04:10:47;4.88;;;1.88;;
7332;SDS011;3707;43.618;25.342;2023-05-07T04:13:15;5.43;;;2.05;;
7332;SDS011;3707;43.618;25.342;2023-05-07T04:15:42;5.60;;;2.00;;
7332;SDS011;3707;43.618;25.342;2023-05-07T04:18:08;5.70;;;2.10;;
7332;SDS011;3707;43.618;25.342;2023-05-07T04:20:35;4.90;;;1.90;;
7332;SDS011;3707;43.618;25.342;2023-05-07T04:23:02;3.40;;;1.60;;
7332;SDS011;3707;43.618;25.342;2023-05-07T04:25:29;3.97;;;1.90;;
7332;SDS011;3707;43.618;25.342;2023-05-07T04:27:56;4.82;;;1.95;;
7332;SDS011;3707;43.618;25.342;2023-05-07T04:30:24;6.28;;;2.15;;
7332;SDS011;3707;43.618;25.342;2023-05-07T04:32:51;7.32;;;2.20;;
7332;SDS011;3707;43.618;25.342;2023-05-07T04:35:19;6.97;;;2.38;;
7332;SDS011;3707;43.618;25.342;2023-05-07T04:37:45;5.13;;;1.92;;
7332;SDS011;3707;43.618;25.342;2023-05-07T04:40:12;9.13;;;2.67;;
7332;SDS011;3707;43.618;25.342;2023-05-07T04:42:39;5.47;;;1.98;;
7332;SDS011;3707;43.618;25.342;2023-05-07T04:45:06;5.35;;;2.08;;
7332;SDS011;3707;43.618;25.342;2023-05-07T04:47:36;3.47;;;1.73;;
7332;SDS011;3707;43.618;25.342;2023-05-07T04:50:03;3.42;;;1.77;;
7332;SDS011;3707;43.618;25.342;2023-05-07T04:52:31;4.78;;;1.95;;
7332;SDS011;3707;43.618;25.342;2023-05-07T04:54:58;3.45;;;1.63;;
7332;SDS011;3707;43.618;25.342;2023-05-07T04:57:25;4.97;;;2.08;;
7332;SDS011;3707;43.618;25.342;2023-05-07T04:59:52;2.63;;;1.67;;
7332;SDS011;3707;43.618;25.342;2023-05-07T05:02:19;4.22;;;2.85;;
7332;SDS011;3707;43.618;25.342;2023-05-07T05:04:47;5.25;;;2.03;;
7332;SDS011;3707;43.618;25.342;2023-05-07T05:07:14;5.53;;;2.13;;
7332;SDS011;3707;43.618;25.342;2023-05-07T05:09:40;5.90;;;2.22;;
7332;SDS011;3707;43.618;25.342;2023-05-07T05:12:07;6.15;;;2.22;;
7332;SDS011;3707;43.618;25.342;2023-05-07T05:14:34;5.28;;;2.03;;
7332;SDS011;3707;43.618;25.342;2023-05-07T05:17:00;5.60;;;2.10;;
7332;SDS011;3707;43.618;25.342;2023-05-07T05:19:27;5.03;;;1.95;;
7332;SDS011;3707;43.618;25.342;2023-05-07T05:21:55;6.45;;;2.10;;
7332;SDS011;3707;43.618;25.342;2023-05-07T05:24:22;5.95;;;2.10;;
7332;SDS011;3707;43.618;25.342;2023-05-07T05:26:49;1.30;;;1.27;;
7332;SDS011;3707;43.618;25.342;2023-05-07T05:29:16;1.40;;;1.30;;
7332;SDS011;3707;43.618;25.342;2023-05-07T05:31:42;1.10;;;1.10;;
7332;SDS011;3707;43.618;25.342;2023-05-07T05:34:09;1.48;;;1.38;;
7332;SDS011;3707;43.618;25.342;2023-05-07T05:36:36;1.02;;;1.02;;
7332;SDS011;3707;43.618;25.342;2023-05-07T05:39:04;1.80;;;1.70;;
7332;SDS011;3707;43.618;25.342;2023-05-07T05:41:31;1.50;;;1.40;;
7332;SDS011;3707;43.618;25.342;2023-05-07T05:43:58;3.03;;;1.55;;
7332;SDS011;3707;43.618;25.342;2023-05-07T05:46:25;1.40;;;1.30;;
7332;SDS011;3707;43.618;25.342;2023-05-07T05:48:51;1.40;;;1.30;;
7332;SDS011;3707;43.618;25.342;2023-05-07T05:51:18;1.20;;;1.20;;
7332;SDS011;3707;43.618;25.342;2023-05-07T05:53:45;1.70;;;1.60;;
7332;SDS011;3707;43.618;25.342;2023-05-07T05:56:13;1.42;;;1.33;;
7332;SDS011;3707;43.618;25.342;2023-05-07T05:58:40;1.10;;;1.10;;
7332;SDS011;3707;43.618;25.342;2023-05-07T06:01:07;1.25;;;1.25;;
7332;SDS011;3707;43.618;25.342;2023-05-07T06:03:35;1.10;;;1.10;;
7332;SDS011;3707;43.618;25.342;2023-05-07T06:06:02;1.10;;;1.10;;
7332;SDS011;3707;43.618;25.342;2023-05-07T06:08:29;1.20;;;1.20;;
7332;SDS011;3707;43.618;25.342;2023-05-07T06:10:56;1.30;;;1.30;;
7332;SDS011;3707;43.618;25.342;2023-05-07T06:13:24;1.33;;;1.33;;
7332;SDS011;3707;43.618;25.342;2023-05-07T06:15:51;1.10;;;1.10;;
7332;SDS011;3707;43.618;25.342;2023-05-07T06:18:18;1.40;;;1.35;;
7332;SDS011;3707;43.618;25.342;2023-05-07T06:20:44;1.15;;;1.15;;
7332;SDS011;3707;43.618;25.342;2023-05-07T06:23:11;1.33;;;1.33;;
7332;SDS011;3707;43.618;25.342;2023-05-07T06:25:38;1.30;;;1.30;;
7332;SDS011;3707;43.618;25.342;2023-05-07T06:28:05;1.40;;;1.30;;
7332;SDS011;3707;43.618;25.342;2023-05-07T06:30:34;1.20;;;1.20;;
7332;SDS011;3707;43.618;25.342;2023-05-07T06:33:01;1.38;;;1.38;;
7332;SDS011;3707;43.618;25.342;2023-05-07T06:35:28;1.20;;;1.20;;
7332;SDS011;3707;43.618;25.342;2023-05-07T06:37:55;1.40;;;1.38;;
7332;SDS011;3707;43.618;25.342;2023-05-07T06:40:22;1.20;;;1.20;;
7332;SDS011;3707;43.618;25.342;2023-05-07T06:42:48;1.20;;;1.20;;
7332;SDS011;3707;43.618;25.342;2023-05-07T06:45:15;1.80;;;1.70;;
7332;SDS011;3707;43.618;25.342;2023-05-07T06:47:43;1.15;;;1.15;;
7332;SDS011;3707;43.618;25.342;2023-05-07T06:50:10;1.20;;;1.20;;
7332;SDS011;3707;43.618;25.342;2023-05-07T06:52:37;1.30;;;1.30;;
7332;SDS011;3707;43.618;25.342;2023-05-07T06:55:04;1.27;;;1.27;;
7332;SDS011;3707;43.618;25.342;2023-05-07T06:57:32;1.30;;;1.30;;
7332;SDS011;3707;43.618;25.342;2023-05-07T06:59:59;1.33;;;1.33;;
7332;SDS011;3707;43.618;25.342;2023-05-07T07:02:26;1.00;;;1.00;;
7332;SDS011;3707;43.618;25.342;2023-05-07T07:04:54;1.33;;;1.33;;
7332;SDS011;3707;43.618;25.342;2023-05-07T07:07:20;1.20;;;1.20;;
7332;SDS011;3707;43.618;25.342;2023-05-07T07:09:47;1.30;;;1.30;;
7332;SDS011;3707;43.618;25.342;2023-05-07T07:12:16;1.25;;;1.25;;
7332;SDS011;3707;43.618;25.342;2023-05-07T07:14:43;1.10;;;1.10;;
7332;SDS011;3707;43.618;25.342;2023-05-07T07:17:09;1.13;;;1.13;;
7332;SDS011;3707;43.618;25.342;2023-05-07T07:19:36;1.20;;;1.20;;
7332;SDS011;3707;43.618;25.342;2023-05-07T07:22:05;1.23;;;1.20;;
7332;SDS011;3707;43.618;25.342;2023-05-07T07:24:32;1.20;;;1.20;;
7332;SDS011;3707;43.618;25.342;2023-05-07T07:26:58;2.58;;;2.38;;
7332;SDS011;3707;43.618;25.342;2023-05-07T07:29:25;1.00;;;1.00;;
7332;SDS011;3707;43.618;25.342;2023-05-07T07:31:52;1.10;;;1.10;;
7332;SDS011;3707;43.618;25.342;2023-05-07T07:34:19;1.17;;;1.17;;
7332;SDS011;3707;43.618;25.342;2023-05-07T07:36:46;1.40;;;1.40;;
7332;SDS011;3707;43.618;25.342;2023-05-07T07:39:14;1.25;;;1.25;;
7332;SDS011;3707;43.618;25.342;2023-05-07T07:41:41;1.30;;;1.30;;
7332;SDS011;3707;43.618;25.342;2023-05-07T07:44:08;1.30;;;1.30;;
7332;SDS011;3707;43.618;25.342;2023-05-07T07:46:37;1.23;;;1.23;;
7332;SDS011;3707;43.618;25.342;2023-05-07T07:49:04;1.30;;;1.30;;
7332;SDS011;3707;43.618;25.342;2023-05-07T07:51:31;1.05;;;1.05;;
7332;SDS011;3707;43.618;25.342;2023-05-07T07:53:58;1.23;;;1.23;;
7332;SDS011;3707;43.618;25.342;2023-05-07T07:56:27;1.20;;;1.20;;
7332;SDS011;3707;43.618;25.342;2023-05-07T07:58:54;1.10;;;1.10;;
7332;SDS011;3707;43.618;25.342;2023-05-07T08:01:20;1.42;;;1.42;;
7332;SDS011;3707;43.618;25.342;2023-05-07T08:03:47;1.17;;;1.17;;
7332;SDS011;3707;43.618;25.342;2023-05-07T08:06:14;1.23;;;1.23;;
7332;SDS011;3707;43.618;25.342;2023-05-07T08:08:41;1.30;;;1.30;;
7332;SDS011;3707;43.618;25.342;2023-05-07T08:11:07;1.20;;;1.20;;
7332;SDS011;3707;43.618;25.342;2023-05-07T08:13:36;1.20;;;1.20;;
7332;SDS011;3707;43.618;25.342;2023-05-07T08:16:04;1.25;;;1.25;;
7332;SDS011;3707;43.618;25.342;2023-05-07T08:18:31;1.30;;;1.30;;
7332;SDS011;3707;43.618;25.342;2023-05-07T08:20:58;1.25;;;1.25;;
7332;SDS011;3707;43.618;25.342;2023-05-07T08:23:24;1.10;;;1.10;;
7332;SDS011;3707;43.618;25.342;2023-05-07T08:25:51;1.20;;;1.20;;
7332;SDS011;3707;43.618;25.342;2023-05-07T08:28:18;1.02;;;1.02;;
7332;SDS011;3707;43.618;25.342;2023-05-07T08:30:47;1.33;;;1.33;;
7332;SDS011;3707;43.618;25.342;2023-05-07T08:33:14;1.15;;;1.15;;
7332;SDS011;3707;43.618;25.342;2023-05-07T08:35:41;1.23;;;1.23;;
7332;SDS011;3707;43.618;25.342;2023-05-07T08:38:08;1.80;;;1.70;;
7332;SDS011;3707;43.618;25.342;2023-05-07T08:40:36;1.20;;;1.20;;
7332;SDS011;3707;43.618;25.342;2023-05-07T08:43:06;1.08;;;1.08;;
7332;SDS011;3707;43.618;25.342;2023-05-07T08:45:33;1.25;;;1.25;;
7332;SDS011;3707;43.618;25.342;2023-05-07T08:48:03;1.35;;;1.30;;
7332;SDS011;3707;43.618;25.342;2023-05-07T08:50:35;1.02;;;1.02;;
7332;SDS011;3707;43.618;25.342;2023-05-07T08:53:02;1.20;;;1.20;;
7332;SDS011;3707;43.618;25.342;2023-05-07T08:55:29;1.02;;;1.02;;
7332;SDS011;3707;43.618;25.342;2023-05-07T08:57:56;1.20;;;1.20;;
7332;SDS011;3707;43.618;25.342;2023-05-07T09:00:23;2.17;;;2.10;;
7332;SDS011;3707;43.618;25.342;2023-05-07T09:02:51;1.20;;;1.20;;
7332;SDS011;3707;43.618;25.342;2023-05-07T09:05:20;1.10;;;1.10;;
7332;SDS011;3707;43.618;25.342;2023-05-07T09:07:47;1.48;;;1.38;;
7332;SDS011;3707;43.618;25.342;2023-05-07T09:10:15;1.20;;;1.20;;
7332;SDS011;3707;43.618;25.342;2023-05-07T09:12:42;1.20;;;1.20;;
7332;SDS011;3707;43.618;25.342;2023-05-07T09:15:09;1.40;;;1.35;;
7332;SDS011;3707;43.618;25.342;2023-05-07T09:17:36;1.10;;;1.10;;
7332;SDS011;3707;43.618;25.342;2023-05-07T09:20:04;1.17;;;1.17;;
7332;SDS011;3707;43.618;25.342;2023-05-07T09:22:33;1.15;;;1.15;;
7332;SDS011;3707;43.618;25.342;2023-05-07T09:25:00;1.50;;;1.40;;
7332;SDS011;3707;43.618;25.342;2023-05-07T09:27:27;1.20;;;1.20;;
7332;SDS011;3707;43.618;25.342;2023-05-07T09:29:55;1.20;;;1.20;;
7332;SDS011;3707;43.618;25.342;2023-05-07T09:32:21;1.40;;;1.35;;
7332;SDS011;3707;43.618;25.342;2023-05-07T09:34:48;1.45;;;1.35;;
7332;SDS011;3707;43.618;25.342;2023-05-07T09:37:15;1.48;;;1.38;;
7332;SDS011;3707;43.618;25.342;2023-05-07T09:39:45;1.20;;;1.20;;
7332;SDS011;3707;43.618;25.342;2023-05-07T09:42:13;1.45;;;1.42;;
7332;SDS011;3707;43.618;25.342;2023-05-07T09:44:40;1.20;;;1.20;;
7332;SDS011;3707;43.618;25.342;2023-05-07T09:47:07;1.33;;;1.33;;
7332;SDS011;3707;43.618;25.342;2023-05-07T09:49:35;1.45;;;1.38;;
7332;SDS011;3707;43.618;25.342;2023-05-07T09:52:04;1.20;;;1.20;;
7332;SDS011;3707;43.618;25.342;2023-05-07T09:54:34;1.50;;;1.40;;
7332;SDS011;3707;43.618;25.342;2023-05-07T09:57:04;1.40;;;1.40;;
7332;SDS011;3707;43.618;25.342;2023-05-07T09:59:32;1.17;;;1.17;;
7332;SDS011;3707;43.618;25.342;2023-05-07T10:02:00;1.20;;;1.20;;
7332;SDS011;3707;43.618;25.342;2023-05-07T10:04:28;1.13;;;1.13;;
7332;SDS011;3707;43.618;25.342;2023-05-07T10:06:55;1.20;;;1.20;;
7332;SDS011;3707;43.618;25.342;2023-05-07T10:09:22;1.20;;;1.20;;
7332;SDS011;3707;43.618;25.342;2023-05-07T10:11:50;1.10;;;1.10;;
7332;SDS011;3707;43.618;25.342;2023-05-07T10:14:19;1.30;;;1.30;;
7332;SDS011;3707;43.618;25.342;2023-05-07T10:16:46;1.30;;;1.30;;
7332;SDS011;3707;43.618;25.342;2023-05-07T10:19:14;1.23;;;1.23;;
7332;SDS011;3707;43.618;25.342;2023-05-07T10:21:43;1.40;;;1.30;;
7332;SDS011;3707;43.618;25.342;2023-05-07T10:24:16;1.45;;;1.35;;
7332;SDS011;3707;43.618;25.342;2023-05-07T10:26:51;1.45;;;1.38;;
7332;SDS011;3707;43.618;25.342;2023-05-07T10:29:25;1.38;;;1.35;;
7332;SDS011;3707;43.618;25.342;2023-05-07T10:32:04;1.55;;;1.45;;
7332;SDS011;3707;43.618;25.342;2023-05-07T10:34:47;1.20;;;1.20;;
7332;SDS011;3707;43.618;25.342;2023-05-07T10:37:17;1.50;;;1.40;;
7332;SDS011;3707;43.618;25.342;2023-05-07T10:39:44;1.20;;;1.20;;
7332;SDS011;3707;43.618;25.342;2023-05-07T10:42:12;1.10;;;1.10;;
7332;SDS011;3707;43.618;25.342;2023-05-07T10:44:41;1.38;;;1.35;;
7332;SDS011;3707;43.618;25.342;2023-05-07T10:47:08;1.45;;;1.40;;
7332;SDS011;3707;43.618;25.342;2023-05-07T10:49:36;1.20;;;1.20;;
7332;SDS011;3707;43.618;25.342;2023-05-07T10:52:16;1.48;;;1.40;;
7332;SDS011;3707;43.618;25.342;2023-05-07T10:54:44;1.20;;;1.20;;
7332;SDS011;3707;43.618;25.342;2023-05-07T11:00:03;1.30;;;1.30;;
7332;SDS011;3707;43.618;25.342;2023-05-07T11:03:05;1.33;;;1.33;;
7332;SDS011;3707;43.618;25.342;2023-05-07T11:05:33;1.45;;;1.40;;
7332;SDS011;3707;43.618;25.342;2023-05-07T11:08:00;1.30;;;1.30;;
7332;SDS011;3707;43.618;25.342;2023-05-07T11:13:16;1.20;;;1.20;;
7332;SDS011;3707;43.618;25.342;2023-05-07T11:15:46;1.27;;;1.27;;
7332;SDS011;3707;43.618;25.342;2023-05-07T11:18:15;1.17;;;1.17;;
7332;SDS011;3707;43.618;25.342;2023-05-07T11:20:46;1.30;;;1.30;;
7332;SDS011;3707;43.618;25.342;2023-05-07T11:26:22;1.33;;;1.33;;
7332;SDS011;3707;43.618;25.342;2023-05-07T11:28:50;1.55;;;1.50;;
7332;SDS011;3707;43.618;25.342;2023-05-07T11:31:21;1.17;;;1.17;;
7332;SDS011;3707;43.618;25.342;2023-05-07T11:33:49;1.23;;;1.23;;
7332;SDS011;3707;43.618;25.342;2023-05-07T11:36:16;1.30;;;1.30;;
7332;SDS011;3707;43.618;25.342;2023-05-07T11:38:45;1.27;;;1.27;;
7332;SDS011;3707;43.618;25.342;2023-05-07T11:41:12;1.38;;;1.38;;
7332;SDS011;3707;43.618;25.342;2023-05-07T11:43:52;1.23;;;1.23;;
7332;SDS011;3707;43.618;25.342;2023-05-07T11:46:26;1.30;;;1.30;;
7332;SDS011;3707;43.618;25.342;2023-05-07T11:48:53;1.27;;;1.27;;
7332;SDS011;3707;43.618;25.342;2023-05-07T11:51:21;1.30;;;1.30;;
7332;SDS011;3707;43.618;25.342;2023-05-07T11:53:48;1.23;;;1.23;;
7332;SDS011;3707;43.618;25.342;2023-05-07T11:56:16;1.20;;;1.20;;
7332;SDS011;3707;43.618;25.342;2023-05-07T11:58:44;1.20;;;1.20;;
7332;SDS011;3707;43.618;25.342;2023-05-07T12:01:12;1.00;;;1.00;;
7332;SDS011;3707;43.618;25.342;2023-05-07T12:03:42;1.20;;;1.20;;
7332;SDS011;3707;43.618;25.342;2023-05-07T12:06:11;1.10;;;1.10;;
7332;SDS011;3707;43.618;25.342;2023-05-07T12:08:38;1.10;;;1.10;;
7332;SDS011;3707;43.618;25.342;2023-05-07T12:11:09;1.25;;;1.25;;
7332;SDS011;3707;43.618;25.342;2023-05-07T12:13:38;1.25;;;1.25;;
7332;SDS011;3707;43.618;25.342;2023-05-07T12:16:05;1.17;;;1.17;;
7332;SDS011;3707;43.618;25.342;2023-05-07T12:18:34;1.10;;;1.10;;
7332;SDS011;3707;43.618;25.342;2023-05-07T12:21:03;1.25;;;1.25;;
7332;SDS011;3707;43.618;25.342;2023-05-07T12:23:32;1.10;;;1.10;;
7332;SDS011;3707;43.618;25.342;2023-05-07T12:26:00;1.20;;;1.17;;
7332;SDS011;3707;43.618;25.342;2023-05-07T12:28:27;1.20;;;1.20;;
7332;SDS011;3707;43.618;25.342;2023-05-07T12:30:54;1.10;;;1.10;;
7332;SDS011;3707;43.618;25.342;2023-05-07T12:33:23;0.90;;;0.90;;
7332;SDS011;3707;43.618;25.342;2023-05-07T12:35:53;1.10;;;1.10;;
7332;SDS011;3707;43.618;25.342;2023-05-07T12:38:22;1.00;;;1.00;;
7332;SDS011;3707;43.618;25.342;2023-05-07T12:40:50;1.10;;;1.10;;
7332;SDS011;3707;43.618;25.342;2023-05-07T12:43:20;1.08;;;1.08;;
7332;SDS011;3707;43.618;25.342;2023-05-07T12:45:50;1.17;;;1.17;;
7332;SDS011;3707;43.618;25.342;2023-05-07T12:48:19;1.20;;;1.20;;
7332;SDS011;3707;43.618;25.342;2023-05-07T12:50:48;1.20;;;1.20;;
7332;SDS011;3707;43.618;25.342;2023-05-07T12:53:15;1.20;;;1.20;;
7332;SDS011;3707;43.618;25.342;2023-05-07T12:55:44;1.10;;;1.10;;
7332;SDS011;3707;43.618;25.342;2023-05-07T12:58:16;1.30;;;1.30;;
7332;SDS011;3707;43.618;25.342;2023-05-07T13:00:43;1.15;;;1.15;;
7332;SDS011;3707;43.618;25.342;2023-05-07T13:03:11;1.08;;;1.08;;
7332;SDS011;3707;43.618;25.342;2023-05-07T13:05:38;1.10;;;1.10;;
7332;SDS011;3707;43.618;25.342;2023-05-07T13:08:05;1.10;;;1.10;;
7332;SDS011;3707;43.618;25.342;2023-05-07T13:10:34;1.10;;;1.10;;
7332;SDS011;3707;43.618;25.342;2023-05-07T13:13:02;1.00;;;1.00;;
7332;SDS011;3707;43.618;25.342;2023-05-07T13:15:29;1.00;;;1.00;;
7332;SDS011;3707;43.618;25.342;2023-05-07T13:17:56;1.15;;;1.15;;
7332;SDS011;3707;43.618;25.342;2023-05-07T13:20:23;1.10;;;1.10;;
7332;SDS011;3707;43.618;25.342;2023-05-07T13:22:50;1.00;;;1.00;;
7332;SDS011;3707;43.618;25.342;2023-05-07T13:25:16;1.10;;;1.10;;
7332;SDS011;3707;43.618;25.342;2023-05-07T13:27:43;0.90;;;0.90;;
7332;SDS011;3707;43.618;25.342;2023-05-07T13:30:12;1.10;;;1.10;;
7332;SDS011;3707;43.618;25.342;2023-05-07T13:32:38;1.08;;;1.08;;
7332;SDS011;3707;43.618;25.342;2023-05-07T13:35:06;1.10;;;1.10;;
7332;SDS011;3707;43.618;25.342;2023-05-07T13:37:33;1.00;;;1.00;;
7332;SDS011;3707;43.618;25.342;2023-05-07T13:40:00;1.30;;;1.30;;
7332;SDS011;3707;43.618;25.342;2023-05-07T13:42:27;1.10;;;1.10;;
7332;SDS011;3707;43.618;25.342;2023-05-07T13:44:54;1.20;;;1.20;;
7332;SDS011;3707;43.618;25.342;2023-05-07T13:47:23;1.15;;;1.15;;
7332;SDS011;3707;43.618;25.342;2023-05-07T13:49:49;1.33;;;1.33;;
7332;SDS011;3707;43.618;25.342;2023-05-07T13:52:16;1.33;;;1.33;;
7332;SDS011;3707;43.618;25.342;2023-05-07T13:54:43;1.40;;;1.40;;
7332;SDS011;3707;43.618;25.342;2023-05-07T13:57:10;1.30;;;1.30;;
7332;SDS011;3707;43.618;25.342;2023-05-07T13:59:37;1.10;;;1.10;;
7332;SDS011;3707;43.618;25.342;2023-05-07T14:02:04;1.00;;;1.00;;
7332;SDS011;3707;43.618;25.342;2023-05-07T14:04:32;1.15;;;1.15;;
7332;SDS011;3707;43.618;25.342;2023-05-07T14:06:58;1.30;;;1.30;;
7332;SDS011;3707;43.618;25.342;2023-05-07T14:09:25;1.25;;;1.25;;
7332;SDS011;3707;43.618;25.342;2023-05-07T14:11:52;0.90;;;0.90;;
7332;SDS011;3707;43.618;25.342;2023-05-07T14:14:19;1.10;;;1.10;;
7332;SDS011;3707;43.618;25.342;2023-05-07T14:16:46;1.20;;;1.20;;
7332;SDS011;3707;43.618;25.342;2023-05-07T14:19:12;1.20;;;1.20;;
7332;SDS011;3707;43.618;25.342;2023-05-07T14:21:41;1.05;;;1.05;;
7332;SDS011;3707;43.618;25.342;2023-05-07T14:24:07;1.08;;;1.08;;
7332;SDS011;3707;43.618;25.342;2023-05-07T14:26:34;1.10;;;1.10;;
7332;SDS011;3707;43.618;25.342;2023-05-07T14:29:01;1.75;;;1.65;;
7332;SDS011;3707;43.618;25.342;2023-05-07T14:31:28;1.15;;;1.15;;
7332;SDS011;3707;43.618;25.342;2023-05-07T14:33:55;1.10;;;1.10;;
7332;SDS011;3707;43.618;25.342;2023-05-07T14:36:24;1.17;;;1.17;;
7332;SDS011;3707;43.618;25.342;2023-05-07T14:38:53;1.10;;;1.10;;
7332;SDS011;3707;43.618;25.342;2023-05-07T14:41:20;1.15;;;1.15;;
7332;SDS011;3707;43.618;25.342;2023-05-07T14:43:48;1.00;;;1.00;;
7332;SDS011;3707;43.618;25.342;2023-05-07T14:46:16;1.10;;;1.10;;
7332;SDS011;3707;43.618;25.342;2023-05-07T14:48:43;1.40;;;1.40;;
7332;SDS011;3707;43.618;25.342;2023-05-07T14:51:11;1.20;;;1.20;;
7332;SDS011;3707;43.618;25.342;2023-05-07T14:53:38;0.90;;;0.90;;
7332;SDS011;3707;43.618;25.342;2023-05-07T14:56:06;1.20;;;1.20;;
7332;SDS011;3707;43.618;25.342;2023-05-07T14:58:33;1.20;;;1.20;;
7332;SDS011;3707;43.618;25.342;2023-05-07T15:01:00;1.00;;;1.00;;
7332;SDS011;3707;43.618;25.342;2023-05-07T15:03:27;1.10;;;1.10;;
7332;SDS011;3707;43.618;25.342;2023-05-07T15:05:54;1.10;;;1.10;;
7332;SDS011;3707;43.618;25.342;2023-05-07T15:08:21;1.00;;;1.00;;
7332;SDS011;3707;43.618;25.342;2023-05-07T15:10:48;1.00;;;1.00;;
7332;SDS011;3707;43.618;25.342;2023-05-07T15:13:16;0.98;;;0.98;;
7332;SDS011;3707;43.618;25.342;2023-05-07T15:15:43;1.10;;;1.10;;